createdAt,value
2018-02-20T00:00:13.837Z,98445
2018-02-20T00:02:41.991Z,98445
2018-02-20T00:05:10.892Z,98436
2018-02-20T00:07:39.089Z,98440
2018-02-20T00:10:07.229Z,98442
2018-02-20T00:12:35.412Z,98445
2018-02-20T00:15:03.542Z,98443
2018-02-20T00:17:31.693Z,98440
2018-02-20T00:19:59.824Z,98437
2018-02-20T00:22:28.751Z,98438
2018-02-20T00:24:56.888Z,98428
2018-02-20T00:27:25.805Z,98430
2018-02-20T00:29:53.944Z,98437
2018-02-20T00:32:22.850Z,98430
2018-02-20T00:34:51.022Z,98438
2018-02-20T00:37:19.168Z,98421
2018-02-20T00:39:47.325Z,98431
2018-02-20T00:42:15.469Z,98430
2018-02-20T00:44:43.624Z,98425
2018-02-20T00:47:11.756Z,98430
2018-02-20T00:49:39.918Z,98429
2018-02-20T00:52:08.057Z,98429
2018-02-20T00:54:36.211Z,98434
2018-02-20T00:57:04.344Z,98434
2018-02-20T00:59:32.502Z,98428
2018-02-20T01:02:00.645Z,98434
2018-02-20T01:04:28.801Z,98431
2018-02-20T01:06:57.820Z,98429
2018-02-20T01:09:25.989Z,98437
2018-02-20T01:11:54.125Z,98445
2018-02-20T01:14:22.265Z,98449
2018-02-20T01:16:50.421Z,98436
2018-02-20T01:19:18.562Z,98432
2018-02-20T01:21:46.737Z,98437
2018-02-20T01:24:14.889Z,98438
2018-02-20T01:26:43.813Z,98432
2018-02-20T01:29:11.949Z,98433
2018-02-20T01:31:40.868Z,98425
2018-02-20T01:34:09.008Z,98422
2018-02-20T01:36:37.945Z,98430
2018-02-20T01:39:06.085Z,98437
2018-02-20T01:41:35.029Z,98427
2018-02-20T01:44:03.176Z,98436
2018-02-20T01:46:31.311Z,98434
2018-02-20T01:49:00.245Z,98438
2018-02-20T01:51:28.372Z,98440
2018-02-20T01:53:57.302Z,98423
2018-02-20T01:56:25.442Z,98418
2018-02-20T01:58:54.364Z,98413
2018-02-20T02:01:22.492Z,98424
2018-02-20T02:03:50.657Z,98426
2018-02-20T02:06:18.792Z,98428
2018-02-20T02:08:46.945Z,98432
2018-02-20T02:11:15.080Z,98426
2018-02-20T02:13:43.264Z,98423
2018-02-20T02:16:12.168Z,98411
2018-02-20T02:18:41.077Z,98425
2018-02-20T02:21:09.234Z,98419
2018-02-20T02:23:38.141Z,98420
2018-02-20T02:26:06.300Z,98423
2018-02-20T02:28:34.457Z,98419
2018-02-20T02:31:03.389Z,98424
2018-02-20T02:33:31.534Z,98422
2018-02-20T02:36:00.469Z,98425
2018-02-20T02:38:28.629Z,98422
2018-02-20T02:40:56.769Z,98419
2018-02-20T02:43:25.685Z,98412
2018-02-20T02:45:53.825Z,98408
2018-02-20T02:48:22.750Z,98408
2018-02-20T02:50:50.884Z,98413
2018-02-20T02:53:19.065Z,98415
2018-02-20T02:55:47.221Z,98419
2018-02-20T02:58:15.393Z,98411
2018-02-20T03:00:43.536Z,98411
2018-02-20T03:03:11.669Z,98410
2018-02-20T03:05:39.886Z,98414
2018-02-20T03:08:08.028Z,98413
2018-02-20T03:10:36.180Z,98413
2018-02-20T03:13:05.080Z,98418
2018-02-20T03:15:33.237Z,98412
2018-02-20T03:18:02.148Z,98419
2018-02-20T03:20:30.304Z,98410
2018-02-20T03:22:59.217Z,98415
2018-02-20T03:25:27.441Z,98409
2018-02-20T03:27:55.579Z,98415
2018-02-20T03:30:23.729Z,98417
2018-02-20T03:32:51.900Z,98409
2018-02-20T03:35:20.060Z,98415
2018-02-20T03:37:49.020Z,98423
2018-02-20T03:40:17.152Z,98418
2018-02-20T03:42:45.344Z,98425
2018-02-20T03:45:13.567Z,98426
2018-02-20T03:47:42.492Z,98437
2018-02-20T03:50:10.657Z,98421
2018-02-20T03:52:38.808Z,98431
2018-02-20T03:55:07.708Z,98436
2018-02-20T03:57:36.632Z,98435
2018-02-20T04:00:04.773Z,98435
2018-02-20T04:02:33.733Z,98433
2018-02-20T04:05:01.878Z,98436
2018-02-20T04:07:30.036Z,98431
2018-02-20T04:09:58.188Z,98435
2018-02-20T04:12:27.100Z,98432
2018-02-20T04:14:55.259Z,98436
2018-02-20T04:17:23.413Z,98427
2018-02-20T04:19:52.332Z,98425
2018-02-20T04:22:20.468Z,98421
2018-02-20T04:24:49.397Z,98430
2018-02-20T04:27:17.542Z,98435
2018-02-20T04:29:46.512Z,98429
2018-02-20T04:32:14.649Z,98436
2018-02-20T04:34:42.806Z,98427
2018-02-20T04:37:10.948Z,98430
2018-02-20T04:39:39.136Z,98426
2018-02-20T04:42:08.042Z,98429
2018-02-20T04:44:36.192Z,98429
2018-02-20T04:47:05.097Z,98420
2018-02-20T04:49:33.269Z,98427
2018-02-20T04:52:01.426Z,98419
2018-02-20T04:54:30.360Z,98425
2018-02-20T04:57:01.709Z,98417
2018-02-20T04:59:29.846Z,98424
2018-02-20T05:01:58.773Z,98410
2018-02-20T05:04:26.912Z,98422
2018-02-20T05:06:55.095Z,98415
2018-02-20T05:09:23.239Z,98416
2018-02-20T05:11:52.164Z,98414
2018-02-20T05:14:20.300Z,98414
2018-02-20T05:16:48.461Z,98411
2018-02-20T05:19:16.596Z,98417
2018-02-20T05:21:44.752Z,98415
2018-02-20T05:24:12.897Z,98410
2018-02-20T05:26:45.471Z,98413
2018-02-20T05:29:13.613Z,98406
2018-02-20T05:31:41.769Z,98413
2018-02-20T05:34:09.912Z,98416
2018-02-20T05:36:38.078Z,98423
2018-02-20T05:39:07.003Z,98414
2018-02-20T05:41:35.145Z,98416
2018-02-20T05:44:03.301Z,98424
2018-02-20T05:46:31.442Z,98431
2018-02-20T05:48:59.592Z,98427
2018-02-20T05:51:27.773Z,98430
2018-02-20T05:53:56.666Z,98433
2018-02-20T05:56:24.802Z,98437
2018-02-20T05:58:53.733Z,98440
2018-02-20T06:01:21.868Z,98449
2018-02-20T06:03:50.077Z,98445
2018-02-20T06:06:19.142Z,98455
2018-02-20T06:08:47.300Z,98449
2018-02-20T06:11:16.207Z,98461
2018-02-20T06:13:44.365Z,98453
2018-02-20T06:16:13.269Z,98463
2018-02-20T06:18:41.441Z,98463
2018-02-20T06:21:09.596Z,98462
2018-02-20T06:23:37.780Z,98455
2018-02-20T06:26:06.686Z,98458
2018-02-20T06:28:34.858Z,98462
2018-02-20T06:31:03.001Z,98454
2018-02-20T06:33:31.909Z,98459
2018-02-20T06:36:00.093Z,98457
2018-02-20T06:38:28.237Z,98454
2018-02-20T06:40:57.160Z,98461
2018-02-20T06:43:25.298Z,98459
2018-02-20T06:45:53.461Z,98467
2018-02-20T06:48:21.601Z,98460
2018-02-20T06:50:49.793Z,98462
2018-02-20T06:53:17.936Z,98461
2018-02-20T06:55:46.093Z,98465
2018-02-20T06:58:14.253Z,98467
2018-02-20T07:00:43.182Z,98467
2018-02-20T07:03:11.323Z,98466
2018-02-20T07:05:39.485Z,98464
2018-02-20T07:08:08.389Z,98464
2018-02-20T07:10:36.561Z,98467
2018-02-20T07:13:05.460Z,98462
2018-02-20T07:15:33.632Z,98466
2018-02-20T07:18:01.781Z,98455
2018-02-20T07:20:30.704Z,98460
2018-02-20T07:22:58.836Z,98456
2018-02-20T07:25:27.007Z,98468
2018-02-20T07:27:55.144Z,98458
2018-02-20T07:30:23.285Z,98465
2018-02-20T07:32:52.198Z,98451
2018-02-20T07:35:20.341Z,98460
2018-02-20T07:37:49.263Z,98463
2018-02-20T07:40:18.160Z,98453
2018-02-20T07:42:46.308Z,98455
2018-02-20T07:45:14.452Z,98454
2018-02-20T07:47:43.384Z,98451
2018-02-20T07:50:11.536Z,98455
2018-02-20T07:52:40.456Z,98455
2018-02-20T07:55:08.617Z,98446
2018-02-20T07:57:36.825Z,98458
2018-02-20T08:00:04.957Z,98465
2018-02-20T08:02:33.117Z,98466
2018-02-20T08:05:01.261Z,98452
2018-02-20T08:07:29.408Z,98454
2018-02-20T08:09:57.545Z,98448
2018-02-20T08:12:25.721Z,98462
2018-02-20T08:14:53.873Z,98461
2018-02-20T08:17:22.812Z,98455
2018-02-20T08:19:50.956Z,98455
2018-02-20T08:22:19.130Z,98453
2018-02-20T08:24:47.280Z,98460
2018-02-20T08:27:16.185Z,98454
2018-02-20T08:29:45.140Z,98458
2018-02-20T08:32:13.291Z,98465
2018-02-20T08:34:41.485Z,98466
2018-02-20T08:37:09.625Z,98463
2018-02-20T08:39:37.789Z,98456
2018-02-20T08:42:05.928Z,98469
2018-02-20T08:44:34.854Z,98476
2018-02-20T08:47:03.042Z,98477
2018-02-20T08:49:31.241Z,98476
2018-02-20T08:51:59.385Z,98475
2018-02-20T08:54:27.542Z,98465
2018-02-20T08:56:55.694Z,98462
2018-02-20T08:59:24.633Z,98465
2018-02-20T09:01:52.781Z,98465
2018-02-20T09:04:20.941Z,98471
2018-02-20T09:06:49.125Z,98475
2018-02-20T09:09:17.261Z,98463
2018-02-20T09:11:45.412Z,98466
2018-02-20T09:14:13.552Z,98474
2018-02-20T09:16:41.705Z,98467
2018-02-20T09:19:10.600Z,98471
2018-02-20T09:21:38.855Z,98465
2018-02-20T09:24:07.764Z,98465
2018-02-20T09:26:35.921Z,98456
2018-02-20T09:29:04.824Z,98452
2018-02-20T09:31:33.746Z,98450
2018-02-20T09:34:01.882Z,98455
2018-02-20T09:36:30.809Z,98449
2018-02-20T09:38:58.954Z,98443
2018-02-20T09:41:27.108Z,98432
2018-02-20T09:43:56.025Z,98437
2018-02-20T09:46:24.194Z,98433
2018-02-20T09:48:52.337Z,98441
2018-02-20T09:51:20.502Z,98427
2018-02-20T09:53:48.661Z,98438
2018-02-20T09:56:16.789Z,98437
2018-02-20T09:58:44.945Z,98433
2018-02-20T10:01:13.857Z,98433
2018-02-20T10:03:42.021Z,98426
2018-02-20T10:06:10.189Z,98437
2018-02-20T10:08:39.121Z,98440
2018-02-20T10:11:07.277Z,98438
2018-02-20T10:13:35.432Z,98433
2018-02-20T10:16:04.333Z,98446
2018-02-20T10:18:32.485Z,98442
2018-02-20T10:21:01.391Z,98446
2018-02-20T10:23:29.653Z,98447
2018-02-20T10:25:57.872Z,98438
2018-02-20T10:28:26.073Z,98430
2018-02-20T10:30:54.258Z,98435
2018-02-20T10:33:22.450Z,98437
2018-02-20T10:35:52.366Z,98439
2018-02-20T10:38:21.382Z,98446
2018-02-20T10:40:49.537Z,98440
2018-02-20T10:43:17.728Z,98434
2018-02-20T10:45:51.481Z,98432
2018-02-20T10:48:19.701Z,98430
2018-02-20T10:50:47.906Z,98433
2018-02-20T10:53:16.045Z,98417
2018-02-20T10:55:49.581Z,98424
2018-02-20T10:58:17.717Z,98414
2018-02-20T11:00:45.873Z,98409
2018-02-20T11:03:14.769Z,98415
2018-02-20T11:05:44.621Z,98411
2018-02-20T11:08:12.753Z,98407
2018-02-20T11:10:41.680Z,98418
2018-02-20T11:13:09.808Z,98407
2018-02-20T11:15:37.965Z,98395
2018-02-20T11:18:06.097Z,98396
2018-02-20T11:20:34.259Z,98394
2018-02-20T11:23:02.388Z,98393
2018-02-20T11:25:30.533Z,98400
2018-02-20T11:27:58.675Z,98390
2018-02-20T11:30:26.824Z,98396
2018-02-20T11:32:55.725Z,98394
2018-02-20T11:35:26.901Z,98396
2018-02-20T11:37:55.033Z,98390
2018-02-20T11:40:23.950Z,98398
2018-02-20T11:42:52.093Z,98398
2018-02-20T11:45:22.161Z,98396
2018-02-20T11:47:50.298Z,98404
2018-02-20T11:50:18.457Z,98407
2018-02-20T11:52:47.353Z,98404
2018-02-20T11:55:16.468Z,98407
2018-02-20T11:57:44.617Z,98410
2018-02-20T12:00:13.513Z,98414
2018-02-20T12:02:41.661Z,98410
2018-02-20T12:05:10.709Z,98414
2018-02-20T12:07:39.626Z,98418
2018-02-20T12:10:07.793Z,98414
2018-02-20T12:12:35.947Z,98416
2018-02-20T12:15:04.077Z,98412
2018-02-20T12:17:32.271Z,98413
2018-02-20T12:20:00.408Z,98421
2018-02-20T12:22:28.552Z,98411
2018-02-20T12:24:59.681Z,98422
2018-02-20T12:27:27.833Z,98428
2018-02-20T12:29:55.961Z,98415
2018-02-20T12:32:24.116Z,98418
2018-02-20T12:35:00.353Z,98415
2018-02-20T12:37:28.537Z,98411
2018-02-20T12:39:56.660Z,98416
2018-02-20T12:42:25.562Z,98425
2018-02-20T12:45:06.694Z,98423
2018-02-20T12:47:34.816Z,98425
2018-02-20T12:50:03.735Z,98418
2018-02-20T12:52:31.872Z,98418
2018-02-20T12:55:01.949Z,98423
2018-02-20T12:57:30.072Z,98426
2018-02-20T12:59:58.989Z,98421
2018-02-20T13:02:27.122Z,98433
2018-02-20T13:04:56.047Z,98436
2018-02-20T13:07:24.192Z,98429
2018-02-20T13:09:53.109Z,98437
2018-02-20T13:12:21.252Z,98425
2018-02-20T13:14:51.118Z,98436
2018-02-20T13:17:19.252Z,98436
2018-02-20T13:19:48.202Z,98426
2018-02-20T13:22:16.347Z,98426
2018-02-20T13:24:46.458Z,98428
2018-02-20T13:27:14.609Z,98436
2018-02-20T13:29:42.741Z,98437
2018-02-20T13:32:10.917Z,98439
2018-02-20T13:34:40.089Z,98431
2018-02-20T13:37:08.241Z,98435
2018-02-20T13:39:36.381Z,98436
2018-02-20T13:42:05.296Z,98437
2018-02-20T13:44:33.438Z,98432
2018-02-20T13:47:02.841Z,98438
2018-02-20T13:49:30.976Z,98443
2018-02-20T13:51:59.197Z,98441
2018-02-20T13:54:28.279Z,98444
2018-02-20T13:56:56.428Z,98436
2018-02-20T13:59:24.556Z,98448
2018-02-20T14:01:52.715Z,98444
2018-02-20T14:04:21.610Z,98446
2018-02-20T14:06:58.233Z,98454
2018-02-20T14:09:26.365Z,98452
2018-02-20T14:11:54.506Z,98449
2018-02-20T14:14:22.653Z,98451
2018-02-20T14:16:54.385Z,98453
2018-02-20T14:19:22.537Z,98453
2018-02-20T14:21:51.484Z,98449
2018-02-20T14:24:19.634Z,98445
2018-02-20T14:26:53.627Z,98444
2018-02-20T14:29:21.784Z,98455
2018-02-20T14:31:49.937Z,98461
2018-02-20T14:34:18.854Z,98455
2018-02-20T14:36:47.966Z,98456
2018-02-20T14:39:16.121Z,98455
2018-02-20T14:41:44.261Z,98454
2018-02-20T14:44:12.425Z,98448
2018-02-20T14:46:40.555Z,98460
2018-02-20T14:49:08.706Z,98463
2018-02-20T14:51:37.596Z,98460
2018-02-20T14:54:05.766Z,98456
2018-02-20T14:56:34.657Z,98466
2018-02-20T14:59:02.807Z,98470
2018-02-20T15:01:30.933Z,98455
2018-02-20T15:03:59.081Z,98460
2018-02-20T15:06:27.220Z,98455
2018-02-20T15:08:55.417Z,98465
2018-02-20T15:11:24.333Z,98473
2018-02-20T15:13:52.457Z,98471
2018-02-20T15:16:20.605Z,98478
2018-02-20T15:18:48.746Z,98480
2018-02-20T15:21:16.906Z,98473
2018-02-20T15:23:45.040Z,98477
2018-02-20T15:26:13.190Z,98477
2018-02-20T15:28:41.312Z,98482
2018-02-20T15:31:10.234Z,98485
2018-02-20T15:33:38.365Z,98490
2018-02-20T15:36:06.518Z,98483
2018-02-20T15:38:34.645Z,98482
2018-02-20T15:41:02.813Z,98485
2018-02-20T15:43:30.954Z,98488
2018-02-20T15:45:59.104Z,98493
2018-02-20T15:48:27.229Z,98493
2018-02-20T15:50:55.381Z,98502
2018-02-20T15:53:24.273Z,98505
2018-02-20T15:55:53.189Z,98500
2018-02-20T15:58:21.362Z,98497
2018-02-20T16:00:49.512Z,98506
2018-02-20T16:03:18.405Z,98497
2018-02-20T16:05:46.570Z,98507
2018-02-20T16:08:14.701Z,98513
2018-02-20T16:10:42.877Z,98510
2018-02-20T16:13:11.012Z,98512
2018-02-20T16:15:40.041Z,98509
2018-02-20T16:18:08.193Z,98512
2018-02-20T16:20:36.318Z,98517
2018-02-20T16:23:04.464Z,98521
2018-02-20T16:25:32.615Z,98512
2018-02-20T16:28:00.764Z,98522
2018-02-20T16:30:29.649Z,98523
2018-02-20T16:32:58.568Z,98526
2018-02-20T16:35:26.717Z,98529
2018-02-20T16:37:54.872Z,98534
2018-02-20T16:40:22.989Z,98541
2018-02-20T16:42:51.133Z,98539
2018-02-20T16:45:20.965Z,98527
2018-02-20T16:47:49.120Z,98538
2018-02-20T16:50:17.257Z,98542
2018-02-20T16:52:45.410Z,98553
2018-02-20T16:55:14.491Z,98549
2018-02-20T16:57:42.643Z,98549
2018-02-20T17:00:10.791Z,98555
2018-02-20T17:02:39.731Z,98546
2018-02-20T17:05:07.861Z,98558
2018-02-20T17:07:36.761Z,98548
2018-02-20T17:10:05.674Z,98562
2018-02-20T17:12:33.805Z,98563
2018-02-20T17:15:10.651Z,98559
2018-02-20T17:17:38.788Z,98566
2018-02-20T17:20:06.989Z,98553
2018-02-20T17:22:35.120Z,98556
2018-02-20T17:25:04.989Z,98552
2018-02-20T17:27:33.125Z,98558
2018-02-20T17:30:01.290Z,98567
2018-02-20T17:32:29.431Z,98563
2018-02-20T17:34:58.598Z,98569
2018-02-20T17:37:26.737Z,98572
2018-02-20T17:39:54.898Z,98569
2018-02-20T17:42:23.811Z,98571
2018-02-20T17:44:53.880Z,98575
2018-02-20T17:47:22.021Z,98565
2018-02-20T17:49:50.180Z,98575
2018-02-20T17:52:18.322Z,98576
2018-02-20T17:54:48.211Z,98585
2018-02-20T17:57:16.356Z,98583
2018-02-20T17:59:44.497Z,98578
2018-02-20T18:02:12.657Z,98586
2018-02-20T18:04:40.801Z,98575
2018-02-20T18:07:08.953Z,98581
2018-02-20T18:09:37.090Z,98583
2018-02-20T18:12:05.250Z,98592
2018-02-20T18:14:33.392Z,98588
2018-02-20T18:17:01.548Z,98597
2018-02-20T18:19:29.700Z,98591
2018-02-20T18:21:57.852Z,98593
2018-02-20T18:24:25.993Z,98600
2018-02-20T18:26:54.145Z,98591
2018-02-20T18:29:22.283Z,98601
2018-02-20T18:31:50.441Z,98610
2018-02-20T18:34:18.582Z,98601
2018-02-20T18:36:46.745Z,98613
2018-02-20T18:39:14.884Z,98608
2018-02-20T18:41:43.038Z,98616
2018-02-20T18:44:11.192Z,98615
2018-02-20T18:46:39.370Z,98616
2018-02-20T18:49:07.516Z,98611
2018-02-20T18:51:35.685Z,98613
2018-02-20T18:54:03.830Z,98617
2018-02-20T18:56:35.169Z,98620
2018-02-20T18:59:03.339Z,98623
2018-02-20T19:01:31.473Z,98631
2018-02-20T19:04:00.393Z,98632
2018-02-20T19:06:30.544Z,98627
2018-02-20T19:08:58.709Z,98635
2018-02-20T19:11:26.865Z,98630
2018-02-20T19:13:55.026Z,98630
2018-02-20T19:16:27.097Z,98640
2018-02-20T19:18:55.252Z,98639
2018-02-20T19:21:24.153Z,98644
2018-02-20T19:23:52.312Z,98639
2018-02-20T19:26:22.161Z,98631
2018-02-20T19:28:50.322Z,98636
2018-02-20T19:31:18.476Z,98642
2018-02-20T19:33:48.960Z,98636
2018-02-20T19:36:17.098Z,98635
2018-02-20T19:38:45.260Z,98645
2018-02-20T19:41:13.393Z,98647
2018-02-20T19:43:42.458Z,98645
2018-02-20T19:46:10.597Z,98640
2018-02-20T19:48:38.769Z,98649
2018-02-20T19:51:06.905Z,98652
2018-02-20T19:53:35.071Z,98653
2018-02-20T19:56:03.209Z,98650
2018-02-20T19:58:31.369Z,98655
2018-02-20T20:00:59.509Z,98643
2018-02-20T20:03:28.429Z,98648
2018-02-20T20:05:56.623Z,98643
2018-02-20T20:08:24.785Z,98648
2018-02-20T20:10:52.941Z,98653
2018-02-20T20:13:21.085Z,98646
2018-02-20T20:15:49.248Z,98647
2018-02-20T20:18:17.381Z,98649
2018-02-20T20:20:48.059Z,98648
2018-02-20T20:23:13.692Z,98640
2018-02-20T20:25:42.613Z,98648
2018-02-20T20:28:10.753Z,98649
2018-02-20T20:30:39.699Z,98647
2018-02-20T20:33:07.833Z,98654
2018-02-20T20:35:36.753Z,98651
2018-02-20T20:38:05.656Z,98656
2018-02-20T20:40:33.810Z,98654
2018-02-20T20:43:01.946Z,98658
2018-02-20T20:45:30.871Z,98666
2018-02-20T20:47:59.776Z,98663
2018-02-20T20:50:27.996Z,98658
2018-02-20T20:52:56.905Z,98667
2018-02-20T20:55:25.829Z,98673
2018-02-20T20:57:53.980Z,98667
2018-02-20T21:00:22.141Z,98661
2018-02-20T21:02:51.049Z,98668
2018-02-20T21:05:19.233Z,98661
2018-02-20T21:07:47.369Z,98664
2018-02-20T21:10:16.273Z,98668
2018-02-20T21:12:44.476Z,98672
2018-02-20T21:15:13.377Z,98673
2018-02-20T21:17:41.541Z,98661
2018-02-20T21:20:09.675Z,98662
2018-02-20T21:22:38.598Z,98658
2018-02-20T21:25:06.737Z,98656
2018-02-20T21:27:35.660Z,98651
2018-02-20T21:30:03.798Z,98656
2018-02-20T21:32:32.741Z,98650
2018-02-20T21:35:03.893Z,98646
2018-02-20T21:37:32.048Z,98654
2018-02-20T21:40:00.188Z,98656
2018-02-20T21:42:29.109Z,98657
2018-02-20T21:44:57.244Z,98662
2018-02-20T21:47:26.171Z,98660
2018-02-20T21:49:54.309Z,98660
2018-02-20T21:52:23.237Z,98659
2018-02-20T21:54:51.380Z,98658
2018-02-20T21:57:20.304Z,98655
2018-02-20T21:59:48.440Z,98654
2018-02-20T22:02:17.376Z,98660
2018-02-20T22:04:45.514Z,98665
2018-02-20T22:07:13.653Z,98664
2018-02-20T22:09:41.805Z,98670
2018-02-20T22:12:09.941Z,98667
2018-02-20T22:14:38.098Z,98669
2018-02-20T22:17:07.020Z,98671
2018-02-20T22:19:35.205Z,98670
2018-02-20T22:22:03.341Z,98679
2018-02-20T22:24:31.510Z,98681
2018-02-20T22:27:00.413Z,98683
2018-02-20T22:29:28.573Z,98683
2018-02-20T22:31:56.729Z,98683
2018-02-20T22:34:25.657Z,98688
2018-02-20T22:36:54.732Z,98686
2018-02-20T22:39:23.669Z,98685
2018-02-20T22:41:51.812Z,98691
2018-02-20T22:44:19.969Z,98686
2018-02-20T22:46:48.882Z,98688
2018-02-20T22:49:17.069Z,98692
2018-02-20T22:51:45.309Z,98691
2018-02-20T22:54:14.249Z,98684
2018-02-20T22:56:42.443Z,98695
2018-02-20T22:59:10.601Z,98691
2018-02-20T23:01:38.781Z,98689
2018-02-20T23:04:06.968Z,98702
2018-02-20T23:06:35.161Z,98707
2018-02-20T23:09:04.140Z,98706
2018-02-20T23:11:47.125Z,98712
2018-02-20T23:14:15.325Z,98703
2018-02-20T23:16:43.508Z,98711
2018-02-20T23:19:11.654Z,98700
2018-02-20T23:21:39.825Z,98708
2018-02-20T23:24:07.960Z,98711
2018-02-20T23:26:36.121Z,98711
2018-02-20T23:29:05.058Z,98716
2018-02-20T23:31:33.245Z,98720
2018-02-20T23:34:01.407Z,98719
2018-02-20T23:36:29.557Z,98721
2018-02-20T23:38:57.694Z,98712
2018-02-20T23:41:26.648Z,98712
2018-02-20T23:43:54.784Z,98711
2018-02-20T23:46:22.921Z,98713
2018-02-20T23:48:51.076Z,98712
2018-02-20T23:51:24.805Z,98715
2018-02-20T23:53:53.733Z,98710
2018-02-20T23:56:21.873Z,98722
2018-02-20T23:58:50.798Z,98721
